sensor_id;sensor_type;location;lat;lon;timestamp;temperature;humidity
68350;DHT22;55268;-34.538;-58.598;2022-09-12T10:24:22;9.50;76.90
68350;DHT22;55268;-34.538;-58.598;2022-09-12T10:27:15;9.20;76.80
68350;DHT22;55268;-34.538;-58.598;2022-09-12T10:29:46;9.20;76.70
68350;DHT22;55268;-34.538;-58.598;2022-09-12T10:32:37;9.30;76.40
68350;DHT22;55268;-34.538;-58.598;2022-09-12T10:35:15;9.40;75.90
68350;DHT22;55268;-34.538;-58.598;2022-09-12T10:40:24;9.70;75.10
68350;DHT22;55268;-34.538;-58.598;2022-09-12T10:42:54;9.80;74.70
68350;DHT22;55268;-34.538;-58.598;2022-09-12T10:45:24;9.90;74.40
68350;DHT22;55268;-34.538;-58.598;2022-09-12T10:47:54;10.00;73.80
68350;DHT22;55268;-34.538;-58.598;2022-09-12T10:50:39;10.10;73.20
68350;DHT22;55268;-34.538;-58.598;2022-09-12T11:07:52;10.50;72.00
68350;DHT22;55268;-34.538;-58.598;2022-09-12T11:38:51;10.90;76.90
68350;DHT22;55268;-34.538;-58.598;2022-09-12T11:41:26;10.70;77.20
68350;DHT22;55268;-34.538;-58.598;2022-09-12T11:51:59;11.30;73.90
68350;DHT22;55268;-34.538;-58.598;2022-09-12T11:54:48;11.50;73.00
68350;DHT22;55268;-34.538;-58.598;2022-09-12T12:00:14;11.70;72.10
68350;DHT22;55268;-34.538;-58.598;2022-09-12T12:08:04;12.00;68.20
68350;DHT22;55268;-34.538;-58.598;2022-09-12T12:10:53;12.10;67.70
68350;DHT22;55268;-34.538;-58.598;2022-09-12T12:13:22;12.20;66.80
68350;DHT22;55268;-34.538;-58.598;2022-09-12T12:16:01;12.30;67.00
68350;DHT22;55268;-34.538;-58.598;2022-09-12T12:18:31;12.40;67.20
68350;DHT22;55268;-34.538;-58.598;2022-09-12T12:35:00;12.80;60.50
68350;DHT22;55268;-34.538;-58.598;2022-09-12T12:39:57;13.00;59.10
68350;DHT22;55268;-34.538;-58.598;2022-09-12T12:47:58;13.20;58.60
68350;DHT22;55268;-34.538;-58.598;2022-09-12T12:50:28;13.30;58.40
68350;DHT22;55268;-34.538;-58.598;2022-09-12T12:55:44;13.40;57.60
68350;DHT22;55268;-34.538;-58.598;2022-09-12T12:58:33;13.40;57.70
68350;DHT22;55268;-34.538;-58.598;2022-09-12T13:01:18;13.60;59.00
68350;DHT22;55268;-34.538;-58.598;2022-09-12T13:03:53;13.60;58.60
68350;DHT22;55268;-34.538;-58.598;2022-09-12T13:06:42;13.60;57.90
68350;DHT22;55268;-34.538;-58.598;2022-09-12T13:09:20;13.70;58.90
68350;DHT22;55268;-34.538;-58.598;2022-09-12T13:11:57;13.80;57.90
68350;DHT22;55268;-34.538;-58.598;2022-09-12T13:17:04;13.90;58.80
68350;DHT22;55268;-34.538;-58.598;2022-09-12T13:19:35;13.90;57.90
68350;DHT22;55268;-34.538;-58.598;2022-09-12T13:22:05;13.90;58.00
68350;DHT22;55268;-34.538;-58.598;2022-09-12T13:24:33;14.00;57.50
68350;DHT22;55268;-34.538;-58.598;2022-09-12T13:27:00;14.00;57.50
68350;DHT22;55268;-34.538;-58.598;2022-09-12T13:29:28;14.00;56.90
68350;DHT22;55268;-34.538;-58.598;2022-09-12T13:31:57;14.10;56.50
68350;DHT22;55268;-34.538;-58.598;2022-09-12T13:34:29;14.00;55.40
68350;DHT22;55268;-34.538;-58.598;2022-09-12T13:39:48;14.10;57.40
68350;DHT22;55268;-34.538;-58.598;2022-09-12T13:47:45;14.30;54.70
68350;DHT22;55268;-34.538;-58.598;2022-09-12T13:50:20;14.30;54.10
68350;DHT22;55268;-34.538;-58.598;2022-09-12T13:52:52;14.40;53.60
68350;DHT22;55268;-34.538;-58.598;2022-09-12T13:55:36;14.40;55.70
68350;DHT22;55268;-34.538;-58.598;2022-09-12T13:58:14;14.40;54.70
68350;DHT22;55268;-34.538;-58.598;2022-09-12T14:00:42;14.50;55.10
68350;DHT22;55268;-34.538;-58.598;2022-09-12T14:03:30;14.60;55.30
68350;DHT22;55268;-34.538;-58.598;2022-09-12T14:06:18;14.70;56.30
68350;DHT22;55268;-34.538;-58.598;2022-09-12T14:08:46;14.80;54.70
68350;DHT22;55268;-34.538;-58.598;2022-09-12T14:11:25;14.80;54.50
68350;DHT22;55268;-34.538;-58.598;2022-09-12T14:13:53;14.90;53.30
68350;DHT22;55268;-34.538;-58.598;2022-09-12T14:16:22;14.90;51.60
68350;DHT22;55268;-34.538;-58.598;2022-09-12T14:18:50;14.90;51.30
68350;DHT22;55268;-34.538;-58.598;2022-09-12T14:21:34;14.90;51.70
68350;DHT22;55268;-34.538;-58.598;2022-09-12T14:24:04;14.90;51.90
68350;DHT22;55268;-34.538;-58.598;2022-09-12T14:26:34;15.00;53.20
68350;DHT22;55268;-34.538;-58.598;2022-09-12T14:29:06;15.10;51.80
68350;DHT22;55268;-34.538;-58.598;2022-09-12T14:31:35;15.10;52.80
68350;DHT22;55268;-34.538;-58.598;2022-09-12T14:34:18;15.20;52.10
68350;DHT22;55268;-34.538;-58.598;2022-09-12T14:36:48;15.30;51.10
68350;DHT22;55268;-34.538;-58.598;2022-09-12T14:44:29;15.30;48.40
68350;DHT22;55268;-34.538;-58.598;2022-09-12T14:47:36;15.30;46.80
68350;DHT22;55268;-34.538;-58.598;2022-09-12T14:49:49;15.30;47.90
68350;DHT22;55268;-34.538;-58.598;2022-09-12T14:52:26;15.40;49.00
68350;DHT22;55268;-34.538;-58.598;2022-09-12T14:57:34;15.50;48.60
68350;DHT22;55268;-34.538;-58.598;2022-09-12T15:02:38;15.60;45.70
68350;DHT22;55268;-34.538;-58.598;2022-09-12T15:07:44;15.80;44.20
68350;DHT22;55268;-34.538;-58.598;2022-09-12T15:10:35;15.80;44.20
68350;DHT22;55268;-34.538;-58.598;2022-09-12T15:13:14;15.90;45.20
68350;DHT22;55268;-34.538;-58.598;2022-09-12T15:15:46;15.90;46.60
68350;DHT22;55268;-34.538;-58.598;2022-09-12T15:18:14;15.90;48.50
68350;DHT22;55268;-34.538;-58.598;2022-09-12T15:20:43;16.00;48.20
68350;DHT22;55268;-34.538;-58.598;2022-09-12T15:26:12;16.20;46.80
68350;DHT22;55268;-34.538;-58.598;2022-09-12T15:28:39;16.30;47.70
68350;DHT22;55268;-34.538;-58.598;2022-09-12T15:31:11;16.30;45.90
68350;DHT22;55268;-34.538;-58.598;2022-09-12T15:33:39;16.40;46.10
68350;DHT22;55268;-34.538;-58.598;2022-09-12T15:36:13;16.40;49.30
68350;DHT22;55268;-34.538;-58.598;2022-09-12T15:38:42;16.50;47.80
68350;DHT22;55268;-34.538;-58.598;2022-09-12T15:41:14;16.60;46.10
68350;DHT22;55268;-34.538;-58.598;2022-09-12T15:43:42;16.60;45.20
68350;DHT22;55268;-34.538;-58.598;2022-09-12T15:46:11;16.70;45.30
68350;DHT22;55268;-34.538;-58.598;2022-09-12T15:48:40;16.70;45.50
68350;DHT22;55268;-34.538;-58.598;2022-09-12T15:51:13;16.70;44.90
68350;DHT22;55268;-34.538;-58.598;2022-09-12T15:53:40;16.80;43.60
68350;DHT22;55268;-34.538;-58.598;2022-09-12T15:56:07;16.80;44.80
68350;DHT22;55268;-34.538;-58.598;2022-09-12T15:58:34;16.80;46.10
68350;DHT22;55268;-34.538;-58.598;2022-09-12T16:01:03;16.90;46.40
68350;DHT22;55268;-34.538;-58.598;2022-09-12T16:03:30;16.90;44.60
68350;DHT22;55268;-34.538;-58.598;2022-09-12T16:06:01;17.00;46.90
68350;DHT22;55268;-34.538;-58.598;2022-09-12T16:08:30;17.00;47.40
68350;DHT22;55268;-34.538;-58.598;2022-09-12T16:11:02;17.10;46.50
68350;DHT22;55268;-34.538;-58.598;2022-09-12T16:13:29;17.20;46.30
68350;DHT22;55268;-34.538;-58.598;2022-09-12T16:15:58;17.10;45.40
68350;DHT22;55268;-34.538;-58.598;2022-09-12T16:18:25;17.30;45.30
68350;DHT22;55268;-34.538;-58.598;2022-09-12T16:20:53;17.30;45.70
68350;DHT22;55268;-34.538;-58.598;2022-09-12T16:23:21;17.40;46.80
68350;DHT22;55268;-34.538;-58.598;2022-09-12T16:25:59;17.40;46.00
68350;DHT22;55268;-34.538;-58.598;2022-09-12T16:28:27;17.50;45.70
68350;DHT22;55268;-34.538;-58.598;2022-09-12T16:33:24;17.40;45.40
68350;DHT22;55268;-34.538;-58.598;2022-09-12T16:35:51;17.50;46.50
68350;DHT22;55268;-34.538;-58.598;2022-09-12T16:38:22;17.40;44.50
68350;DHT22;55268;-34.538;-58.598;2022-09-12T16:40:49;17.50;46.10
68350;DHT22;55268;-34.538;-58.598;2022-09-12T16:43:16;17.50;46.60
68350;DHT22;55268;-34.538;-58.598;2022-09-12T16:45:44;17.60;46.20
68350;DHT22;55268;-34.538;-58.598;2022-09-12T16:48:12;17.70;45.90
68350;DHT22;55268;-34.538;-58.598;2022-09-12T16:50:39;17.70;45.20
68350;DHT22;55268;-34.538;-58.598;2022-09-12T16:53:06;17.70;46.00
68350;DHT22;55268;-34.538;-58.598;2022-09-12T16:55:34;17.70;45.80
68350;DHT22;55268;-34.538;-58.598;2022-09-12T16:58:01;17.70;46.00
68350;DHT22;55268;-34.538;-58.598;2022-09-12T17:00:28;17.70;45.90
68350;DHT22;55268;-34.538;-58.598;2022-09-12T17:02:59;17.70;45.50
68350;DHT22;55268;-34.538;-58.598;2022-09-12T17:05:27;17.70;45.80
68350;DHT22;55268;-34.538;-58.598;2022-09-12T17:07:54;17.60;45.70
68350;DHT22;55268;-34.538;-58.598;2022-09-12T17:10:21;17.70;45.90
68350;DHT22;55268;-34.538;-58.598;2022-09-12T17:12:48;17.80;45.90
68350;DHT22;55268;-34.538;-58.598;2022-09-12T17:15:15;17.90;44.60
68350;DHT22;55268;-34.538;-58.598;2022-09-12T17:17:42;17.90;44.90
68350;DHT22;55268;-34.538;-58.598;2022-09-12T17:20:09;17.90;45.40
68350;DHT22;55268;-34.538;-58.598;2022-09-12T17:22:36;17.90;45.50
68350;DHT22;55268;-34.538;-58.598;2022-09-12T17:25:03;17.90;45.00
68350;DHT22;55268;-34.538;-58.598;2022-09-12T17:27:30;18.00;45.80
68350;DHT22;55268;-34.538;-58.598;2022-09-12T17:29:57;18.00;45.10
68350;DHT22;55268;-34.538;-58.598;2022-09-12T17:32:23;18.00;44.40
68350;DHT22;55268;-34.538;-58.598;2022-09-12T17:34:50;17.90;44.80
68350;DHT22;55268;-34.538;-58.598;2022-09-12T17:37:17;18.00;45.00
68350;DHT22;55268;-34.538;-58.598;2022-09-12T17:39:53;18.00;44.30
68350;DHT22;55268;-34.538;-58.598;2022-09-12T17:42:27;18.00;45.00
68350;DHT22;55268;-34.538;-58.598;2022-09-12T17:44:54;18.10;44.50
68350;DHT22;55268;-34.538;-58.598;2022-09-12T17:47:23;18.10;44.10
68350;DHT22;55268;-34.538;-58.598;2022-09-12T17:49:50;18.00;44.90
68350;DHT22;55268;-34.538;-58.598;2022-09-12T17:52:19;18.00;43.80
68350;DHT22;55268;-34.538;-58.598;2022-09-12T17:54:49;18.10;45.30
68350;DHT22;55268;-34.538;-58.598;2022-09-12T17:57:17;18.20;44.90
68350;DHT22;55268;-34.538;-58.598;2022-09-12T17:59:44;18.20;44.20
68350;DHT22;55268;-34.538;-58.598;2022-09-12T18:02:11;18.30;44.20
68350;DHT22;55268;-34.538;-58.598;2022-09-12T18:04:40;18.30;44.40
68350;DHT22;55268;-34.538;-58.598;2022-09-12T18:07:07;18.30;43.50
68350;DHT22;55268;-34.538;-58.598;2022-09-12T18:09:34;18.30;44.20
68350;DHT22;55268;-34.538;-58.598;2022-09-12T18:12:02;18.20;44.40
68350;DHT22;55268;-34.538;-58.598;2022-09-12T18:14:28;18.20;44.20
68350;DHT22;55268;-34.538;-58.598;2022-09-12T18:16:56;18.30;44.60
68350;DHT22;55268;-34.538;-58.598;2022-09-12T18:19:23;18.30;44.60
68350;DHT22;55268;-34.538;-58.598;2022-09-12T18:21:50;18.40;43.80
68350;DHT22;55268;-34.538;-58.598;2022-09-12T18:24:17;18.40;43.80
68350;DHT22;55268;-34.538;-58.598;2022-09-12T18:26:45;18.40;44.00
68350;DHT22;55268;-34.538;-58.598;2022-09-12T18:29:13;18.40;44.30
68350;DHT22;55268;-34.538;-58.598;2022-09-12T18:31:42;18.40;44.40
68350;DHT22;55268;-34.538;-58.598;2022-09-12T18:34:11;18.40;44.20
68350;DHT22;55268;-34.538;-58.598;2022-09-12T18:36:40;18.40;44.60
68350;DHT22;55268;-34.538;-58.598;2022-09-12T18:39:07;18.50;43.90
68350;DHT22;55268;-34.538;-58.598;2022-09-12T18:41:35;18.50;43.80
68350;DHT22;55268;-34.538;-58.598;2022-09-12T18:44:02;18.50;43.70
68350;DHT22;55268;-34.538;-58.598;2022-09-12T18:46:31;18.50;44.00
68350;DHT22;55268;-34.538;-58.598;2022-09-12T18:48:59;18.50;44.00
68350;DHT22;55268;-34.538;-58.598;2022-09-12T18:51:31;18.50;43.80
68350;DHT22;55268;-34.538;-58.598;2022-09-12T18:54:03;18.50;43.70
68350;DHT22;55268;-34.538;-58.598;2022-09-12T18:56:33;18.50;44.00
68350;DHT22;55268;-34.538;-58.598;2022-09-12T18:59:02;18.60;43.60
68350;DHT22;55268;-34.538;-58.598;2022-09-12T19:01:33;18.50;43.20
68350;DHT22;55268;-34.538;-58.598;2022-09-12T19:04:01;18.60;44.10
68350;DHT22;55268;-34.538;-58.598;2022-09-12T19:06:35;18.70;43.20
68350;DHT22;55268;-34.538;-58.598;2022-09-12T19:09:02;18.70;43.70
68350;DHT22;55268;-34.538;-58.598;2022-09-12T19:11:29;18.70;43.00
68350;DHT22;55268;-34.538;-58.598;2022-09-12T19:13:56;18.80;43.50
68350;DHT22;55268;-34.538;-58.598;2022-09-12T19:16:25;18.80;42.10
68350;DHT22;55268;-34.538;-58.598;2022-09-12T19:18:55;18.80;42.10
68350;DHT22;55268;-34.538;-58.598;2022-09-12T19:21:26;18.80;42.60
68350;DHT22;55268;-34.538;-58.598;2022-09-12T19:23:59;18.90;43.60
68350;DHT22;55268;-34.538;-58.598;2022-09-12T19:26:27;18.90;43.80
68350;DHT22;55268;-34.538;-58.598;2022-09-12T19:28:54;18.90;42.80
68350;DHT22;55268;-34.538;-58.598;2022-09-12T19:31:22;18.90;43.10
68350;DHT22;55268;-34.538;-58.598;2022-09-12T19:33:50;18.90;43.00
68350;DHT22;55268;-34.538;-58.598;2022-09-12T19:36:19;18.90;42.10
68350;DHT22;55268;-34.538;-58.598;2022-09-12T19:38:47;18.90;42.80
68350;DHT22;55268;-34.538;-58.598;2022-09-12T19:41:13;18.90;42.50
68350;DHT22;55268;-34.538;-58.598;2022-09-12T19:43:41;19.00;42.20
68350;DHT22;55268;-34.538;-58.598;2022-09-12T19:46:12;19.00;42.10
68350;DHT22;55268;-34.538;-58.598;2022-09-12T19:48:40;19.00;42.00
68350;DHT22;55268;-34.538;-58.598;2022-09-12T19:51:06;19.10;41.90
68350;DHT22;55268;-34.538;-58.598;2022-09-12T19:53:33;19.10;42.50
68350;DHT22;55268;-34.538;-58.598;2022-09-12T19:56:03;19.00;41.90
68350;DHT22;55268;-34.538;-58.598;2022-09-12T19:58:34;19.00;42.00
68350;DHT22;55268;-34.538;-58.598;2022-09-12T20:01:22;19.00;41.60
68350;DHT22;55268;-34.538;-58.598;2022-09-12T20:03:55;18.90;41.70
68350;DHT22;55268;-34.538;-58.598;2022-09-12T20:06:22;18.90;42.10
68350;DHT22;55268;-34.538;-58.598;2022-09-12T20:08:50;18.90;42.10
68350;DHT22;55268;-34.538;-58.598;2022-09-12T20:11:20;18.90;42.00
68350;DHT22;55268;-34.538;-58.598;2022-09-12T20:13:48;18.90;41.90
68350;DHT22;55268;-34.538;-58.598;2022-09-12T20:16:18;18.80;41.60
68350;DHT22;55268;-34.538;-58.598;2022-09-12T20:18:46;18.80;42.20
68350;DHT22;55268;-34.538;-58.598;2022-09-12T20:21:17;18.80;42.40
68350;DHT22;55268;-34.538;-58.598;2022-09-12T20:23:45;18.80;42.80
68350;DHT22;55268;-34.538;-58.598;2022-09-12T20:26:11;18.70;43.10
68350;DHT22;55268;-34.538;-58.598;2022-09-12T20:28:40;18.80;43.10
68350;DHT22;55268;-34.538;-58.598;2022-09-12T20:31:12;18.70;43.20
68350;DHT22;55268;-34.538;-58.598;2022-09-12T20:33:40;18.70;43.70
68350;DHT22;55268;-34.538;-58.598;2022-09-12T20:36:10;18.70;43.20
68350;DHT22;55268;-34.538;-58.598;2022-09-12T20:38:37;18.60;43.40
68350;DHT22;55268;-34.538;-58.598;2022-09-12T20:41:06;18.60;43.30
68350;DHT22;55268;-34.538;-58.598;2022-09-12T20:43:34;18.60;43.20
68350;DHT22;55268;-34.538;-58.598;2022-09-12T20:46:09;18.60;43.80
68350;DHT22;55268;-34.538;-58.598;2022-09-12T20:48:37;18.60;43.00
68350;DHT22;55268;-34.538;-58.598;2022-09-12T20:51:05;18.60;44.00
68350;DHT22;55268;-34.538;-58.598;2022-09-12T20:53:33;18.60;43.90
68350;DHT22;55268;-34.538;-58.598;2022-09-12T20:56:00;18.50;43.80
68350;DHT22;55268;-34.538;-58.598;2022-09-12T20:58:27;18.50;43.80
68350;DHT22;55268;-34.538;-58.598;2022-09-12T21:00:54;18.50;43.70
68350;DHT22;55268;-34.538;-58.598;2022-09-12T21:03:21;18.50;44.50
68350;DHT22;55268;-34.538;-58.598;2022-09-12T21:05:49;18.40;44.50
68350;DHT22;55268;-34.538;-58.598;2022-09-12T21:08:16;18.30;44.20
68350;DHT22;55268;-34.538;-58.598;2022-09-12T21:10:44;18.30;44.50
68350;DHT22;55268;-34.538;-58.598;2022-09-12T21:13:11;18.30;44.60
68350;DHT22;55268;-34.538;-58.598;2022-09-12T21:15:39;18.30;44.90
68350;DHT22;55268;-34.538;-58.598;2022-09-12T21:18:08;18.30;45.70
68350;DHT22;55268;-34.538;-58.598;2022-09-12T21:20:35;18.30;46.30
68350;DHT22;55268;-34.538;-58.598;2022-09-12T21:23:02;18.20;45.90
68350;DHT22;55268;-34.538;-58.598;2022-09-12T21:25:31;18.20;46.10
68350;DHT22;55268;-34.538;-58.598;2022-09-12T21:27:58;18.10;45.60
68350;DHT22;55268;-34.538;-58.598;2022-09-12T21:30:24;18.00;46.00
68350;DHT22;55268;-34.538;-58.598;2022-09-12T21:32:53;17.90;46.60
68350;DHT22;55268;-34.538;-58.598;2022-09-12T21:35:20;17.80;47.00
68350;DHT22;55268;-34.538;-58.598;2022-09-12T21:37:50;17.80;46.80
68350;DHT22;55268;-34.538;-58.598;2022-09-12T21:40:18;17.70;47.70
68350;DHT22;55268;-34.538;-58.598;2022-09-12T21:42:48;17.70;47.60
68350;DHT22;55268;-34.538;-58.598;2022-09-12T21:45:15;17.60;47.70
68350;DHT22;55268;-34.538;-58.598;2022-09-12T21:47:44;17.50;48.20
68350;DHT22;55268;-34.538;-58.598;2022-09-12T21:50:11;17.50;48.30
68350;DHT22;55268;-34.538;-58.598;2022-09-12T21:52:38;17.50;48.60
68350;DHT22;55268;-34.538;-58.598;2022-09-12T21:55:07;17.50;49.00
68350;DHT22;55268;-34.538;-58.598;2022-09-12T21:57:34;17.40;49.20
68350;DHT22;55268;-34.538;-58.598;2022-09-12T22:00:05;17.40;48.90
68350;DHT22;55268;-34.538;-58.598;2022-09-12T22:02:33;17.40;48.60
68350;DHT22;55268;-34.538;-58.598;2022-09-12T22:05:00;17.40;48.40
68350;DHT22;55268;-34.538;-58.598;2022-09-12T22:07:27;17.50;48.90
68350;DHT22;55268;-34.538;-58.598;2022-09-12T22:09:55;17.40;49.40
68350;DHT22;55268;-34.538;-58.598;2022-09-12T22:12:24;17.40;49.20
68350;DHT22;55268;-34.538;-58.598;2022-09-12T22:14:53;17.40;49.60
68350;DHT22;55268;-34.538;-58.598;2022-09-12T22:17:21;17.40;49.80
68350;DHT22;55268;-34.538;-58.598;2022-09-12T22:19:48;17.30;49.80
68350;DHT22;55268;-34.538;-58.598;2022-09-12T22:22:16;17.30;49.40
68350;DHT22;55268;-34.538;-58.598;2022-09-12T22:25:02;17.20;49.90
68350;DHT22;55268;-34.538;-58.598;2022-09-12T22:27:29;17.10;50.40
68350;DHT22;55268;-34.538;-58.598;2022-09-12T22:29:57;17.00;50.20
68350;DHT22;55268;-34.538;-58.598;2022-09-12T22:32:25;17.00;50.30
68350;DHT22;55268;-34.538;-58.598;2022-09-12T22:34:53;17.00;50.30
68350;DHT22;55268;-34.538;-58.598;2022-09-12T22:37:20;17.00;50.20
68350;DHT22;55268;-34.538;-58.598;2022-09-12T22:39:47;16.90;50.70
68350;DHT22;55268;-34.538;-58.598;2022-09-12T22:42:15;16.90;50.90
68350;DHT22;55268;-34.538;-58.598;2022-09-12T22:44:42;16.90;51.30
68350;DHT22;55268;-34.538;-58.598;2022-09-12T22:47:09;16.90;51.70
68350;DHT22;55268;-34.538;-58.598;2022-09-12T22:49:37;16.90;51.90
68350;DHT22;55268;-34.538;-58.598;2022-09-12T22:52:04;16.80;52.30
68350;DHT22;55268;-34.538;-58.598;2022-09-12T22:54:31;16.80;52.40
68350;DHT22;55268;-34.538;-58.598;2022-09-12T22:56:58;16.80;52.70
68350;DHT22;55268;-34.538;-58.598;2022-09-12T22:59:34;16.70;52.80
68350;DHT22;55268;-34.538;-58.598;2022-09-12T23:02:03;16.70;53.00
68350;DHT22;55268;-34.538;-58.598;2022-09-12T23:04:31;16.70;52.70
68350;DHT22;55268;-34.538;-58.598;2022-09-12T23:06:59;16.60;52.70
68350;DHT22;55268;-34.538;-58.598;2022-09-12T23:09:26;16.70;53.00
68350;DHT22;55268;-34.538;-58.598;2022-09-12T23:11:53;16.60;53.10
68350;DHT22;55268;-34.538;-58.598;2022-09-12T23:14:20;16.60;53.40
68350;DHT22;55268;-34.538;-58.598;2022-09-12T23:16:49;16.60;53.40
68350;DHT22;55268;-34.538;-58.598;2022-09-12T23:19:17;16.60;53.80
68350;DHT22;55268;-34.538;-58.598;2022-09-12T23:21:44;16.50;54.10
68350;DHT22;55268;-34.538;-58.598;2022-09-12T23:24:12;16.50;54.30
68350;DHT22;55268;-34.538;-58.598;2022-09-12T23:26:40;16.40;54.50
68350;DHT22;55268;-34.538;-58.598;2022-09-12T23:29:07;16.40;54.50
68350;DHT22;55268;-34.538;-58.598;2022-09-12T23:31:34;16.40;54.50
68350;DHT22;55268;-34.538;-58.598;2022-09-12T23:34:05;16.40;54.50
68350;DHT22;55268;-34.538;-58.598;2022-09-12T23:36:33;16.40;54.60
68350;DHT22;55268;-34.538;-58.598;2022-09-12T23:39:03;16.40;54.50
68350;DHT22;55268;-34.538;-58.598;2022-09-12T23:41:38;16.40;54.70
68350;DHT22;55268;-34.538;-58.598;2022-09-12T23:44:12;16.40;54.70
68350;DHT22;55268;-34.538;-58.598;2022-09-12T23:46:40;16.30;54.80
68350;DHT22;55268;-34.538;-58.598;2022-09-12T23:49:07;16.30;54.70
68350;DHT22;55268;-34.538;-58.598;2022-09-12T23:51:38;16.30;54.70
68350;DHT22;55268;-34.538;-58.598;2022-09-12T23:54:06;16.30;54.60
68350;DHT22;55268;-34.538;-58.598;2022-09-12T23:56:34;16.30;54.00
68350;DHT22;55268;-34.538;-58.598;2022-09-12T23:59:01;16.30;53.80
